createdAt,value
2019-03-03T00:01:42.867Z,120.00
2019-03-03T00:04:13.297Z,120.72
2019-03-03T00:06:43.376Z,113.95
2019-03-03T00:09:13.689Z,115.37
2019-03-03T00:11:43.816Z,111.68
2019-03-03T00:14:14.142Z,106.10
2019-03-03T00:16:44.498Z,110.37
2019-03-03T00:19:15.060Z,110.40
2019-03-03T00:21:46.975Z,109.55
2019-03-03T00:24:17.063Z,112.80
2019-03-03T00:26:47.360Z,118.20
2019-03-03T00:29:17.500Z,103.92
2019-03-03T00:31:47.773Z,109.50
2019-03-03T00:34:18.139Z,112.42
2019-03-03T00:37:06.429Z,100.78
2019-03-03T00:39:47.427Z,100.58
2019-03-03T00:42:34.196Z,93.35
2019-03-03T00:45:18.399Z,101.05
2019-03-03T00:47:56.087Z,105.15
2019-03-03T00:50:28.160Z,95.30
2019-03-03T00:53:00.185Z,98.15
2019-03-03T00:55:33.524Z,107.83
2019-03-03T00:58:08.156Z,96.28
2019-03-03T01:00:50.933Z,99.58
2019-03-03T01:03:25.526Z,105.83
2019-03-03T01:06:07.298Z,102.07
2019-03-03T01:08:56.306Z,101.45
2019-03-03T01:11:40.034Z,106.47
2019-03-03T01:14:12.033Z,109.40
2019-03-03T01:16:52.701Z,108.07
2019-03-03T01:19:24.774Z,105.20
2019-03-03T01:21:59.536Z,104.67
2019-03-03T01:24:37.143Z,111.40
2019-03-03T01:27:07.417Z,102.25
2019-03-03T01:29:37.825Z,109.42
2019-03-03T01:32:07.978Z,110.10
2019-03-03T01:34:38.764Z,104.67
2019-03-03T01:37:09.092Z,103.92
2019-03-03T01:39:39.584Z,108.05
2019-03-03T01:42:09.673Z,111.05
2019-03-03T01:44:39.720Z,112.70
2019-03-03T01:47:09.812Z,107.15
2019-03-03T01:49:39.824Z,110.08
2019-03-03T01:52:09.868Z,112.77
2019-03-03T01:54:40.973Z,107.52
2019-03-03T01:57:10.993Z,113.37
2019-03-03T01:59:41.033Z,111.60
2019-03-03T02:02:11.106Z,108.80
2019-03-03T02:04:41.120Z,108.72
2019-03-03T02:07:11.164Z,109.90
2019-03-03T02:09:41.201Z,118.95
2019-03-03T02:12:11.216Z,109.95
2019-03-03T02:14:41.541Z,109.07
2019-03-03T02:17:12.656Z,108.97
2019-03-03T02:19:42.772Z,110.60
2019-03-03T02:22:12.796Z,108.35
2019-03-03T02:24:42.813Z,111.32
2019-03-03T02:27:12.862Z,105.63
2019-03-03T02:29:42.900Z,110.92
2019-03-03T02:32:13.194Z,114.03
2019-03-03T02:34:43.294Z,111.65
2019-03-03T02:37:13.581Z,118.35
2019-03-03T02:39:43.678Z,106.75
2019-03-03T02:42:14.038Z,116.20
2019-03-03T02:44:44.125Z,110.72
2019-03-03T02:47:14.425Z,115.17
2019-03-03T02:49:44.776Z,109.10
2019-03-03T02:52:15.140Z,108.50
2019-03-03T02:54:45.497Z,109.60
2019-03-03T02:57:15.859Z,101.85
2019-03-03T02:59:46.326Z,100.53
2019-03-03T03:02:18.435Z,113.70
2019-03-03T03:04:48.816Z,106.87
2019-03-03T03:07:29.758Z,113.92
2019-03-03T03:10:02.670Z,108.07
2019-03-03T03:12:53.865Z,101.70
2019-03-03T03:15:31.805Z,112.10
2019-03-03T03:18:06.734Z,110.70
2019-03-03T03:20:44.771Z,112.97
2019-03-03T03:23:25.946Z,112.50
2019-03-03T03:26:16.986Z,104.32
2019-03-03T03:28:48.945Z,112.15
2019-03-03T03:31:35.673Z,111.83
2019-03-03T03:34:07.601Z,105.87
2019-03-03T03:36:39.614Z,114.03
2019-03-03T03:39:17.761Z,112.35
2019-03-03T03:42:05.991Z,114.85
2019-03-03T03:44:55.880Z,113.92
2019-03-03T03:47:42.480Z,114.62
2019-03-03T03:50:19.874Z,111.90
2019-03-03T03:52:51.937Z,109.03
2019-03-03T03:55:25.558Z,116.57
2019-03-03T03:57:57.334Z,82.80
2019-03-03T04:00:38.200Z,112.60
2019-03-03T04:03:25.099Z,106.32
2019-03-03T04:06:12.230Z,108.50
2019-03-03T04:08:46.901Z,104.10
2019-03-03T04:11:21.312Z,110.65
2019-03-03T04:14:01.707Z,117.53
2019-03-03T04:16:46.671Z,108.55
2019-03-03T04:19:24.522Z,107.92
2019-03-03T04:21:59.503Z,108.35
2019-03-03T04:24:40.622Z,115.90
2019-03-03T04:27:18.324Z,107.40
2019-03-03T04:29:50.042Z,111.90
2019-03-03T04:32:21.987Z,112.05
2019-03-03T04:35:08.692Z,111.37
2019-03-03T04:37:49.577Z,111.60
2019-03-03T04:40:24.347Z,111.75
2019-03-03T04:43:11.884Z,113.30
2019-03-03T04:45:43.542Z,110.88
2019-03-03T04:48:15.205Z,103.72
2019-03-03T04:50:50.148Z,107.80
2019-03-03T04:53:38.116Z,105.47
2019-03-03T04:56:24.768Z,106.63
2019-03-03T04:58:59.688Z,115.92
2019-03-03T05:01:46.605Z,112.25
2019-03-03T05:04:21.336Z,109.22
2019-03-03T05:06:53.079Z,113.15
2019-03-03T05:09:27.634Z,111.65
2019-03-03T05:12:13.986Z,108.63
2019-03-03T05:14:44.910Z,105.30
2019-03-03T05:17:35.124Z,108.57
2019-03-03T05:20:11.403Z,107.63
2019-03-03T05:22:41.434Z,102.85
2019-03-03T05:25:11.473Z,104.07
2019-03-03T05:27:41.478Z,112.60
2019-03-03T05:30:14.757Z,113.45
2019-03-03T05:32:45.017Z,112.57
2019-03-03T05:35:15.118Z,111.90
2019-03-03T05:37:45.431Z,110.83
2019-03-03T05:40:15.536Z,108.12
2019-03-03T05:42:45.795Z,116.82
2019-03-03T05:45:16.173Z,113.12
2019-03-03T05:47:46.302Z,106.10
2019-03-03T05:50:16.363Z,113.00
2019-03-03T05:52:46.393Z,109.30
2019-03-03T05:55:16.694Z,112.72
2019-03-03T05:57:47.040Z,112.12
2019-03-03T06:00:17.110Z,106.27
2019-03-03T06:02:47.141Z,111.32
2019-03-03T06:05:17.461Z,103.75
2019-03-03T06:07:47.789Z,101.07
2019-03-03T06:10:18.129Z,111.00
2019-03-03T06:12:48.491Z,102.22
2019-03-03T06:15:18.583Z,109.55
2019-03-03T06:17:48.887Z,106.30
2019-03-03T06:20:19.262Z,116.45
2019-03-03T06:22:49.330Z,111.22
2019-03-03T06:25:19.787Z,110.40
2019-03-03T06:27:49.924Z,111.90
2019-03-03T06:30:19.929Z,109.90
2019-03-03T06:32:50.029Z,111.75
2019-03-03T06:35:20.537Z,109.27
2019-03-03T06:37:50.806Z,114.35
2019-03-03T06:40:20.888Z,115.77
2019-03-03T06:42:50.891Z,115.97
2019-03-03T06:45:20.917Z,107.87
2019-03-03T06:47:50.918Z,115.47
2019-03-03T06:50:20.946Z,104.12
2019-03-03T06:52:51.213Z,110.00
2019-03-03T06:55:21.287Z,105.47
2019-03-03T06:57:51.579Z,111.83
2019-03-03T07:00:21.649Z,111.08
2019-03-03T07:02:51.746Z,120.22
2019-03-03T07:05:22.084Z,113.42
2019-03-03T07:07:52.171Z,93.78
2019-03-03T07:10:22.426Z,114.08
2019-03-03T07:12:52.825Z,109.45
2019-03-03T07:15:23.148Z,108.35
2019-03-03T07:17:53.502Z,113.88
2019-03-03T07:20:23.845Z,111.57
2019-03-03T07:22:53.948Z,116.55
2019-03-03T07:25:23.919Z,111.97
2019-03-03T07:27:54.200Z,117.37
2019-03-03T07:30:24.294Z,114.85
2019-03-03T07:33:03.481Z,111.55
2019-03-03T07:35:33.570Z,104.83
2019-03-03T07:38:03.984Z,113.75
2019-03-03T07:40:34.277Z,116.08
2019-03-03T07:43:04.731Z,107.50
2019-03-03T07:45:34.849Z,102.82
2019-03-03T07:48:05.075Z,105.52
2019-03-03T07:50:37.470Z,102.30
2019-03-03T07:53:07.742Z,104.20
2019-03-03T07:55:38.135Z,106.67
2019-03-03T07:58:08.543Z,108.03
2019-03-03T08:00:38.666Z,99.58
2019-03-03T08:03:08.940Z,104.78
2019-03-03T08:05:39.135Z,95.97
2019-03-03T08:08:09.181Z,100.12
2019-03-03T08:10:39.464Z,98.17
2019-03-03T08:13:09.888Z,107.03
2019-03-03T08:15:42.313Z,100.15
2019-03-03T08:18:12.479Z,99.17
2019-03-03T08:20:42.527Z,98.30
2019-03-03T08:23:13.383Z,97.25
2019-03-03T08:25:43.441Z,96.63
2019-03-03T08:28:13.759Z,105.92
2019-03-03T08:30:43.826Z,91.30
2019-03-03T08:33:15.391Z,98.65
2019-03-03T08:35:45.464Z,96.97
2019-03-03T08:38:15.750Z,93.62
2019-03-03T08:40:46.077Z,98.42
2019-03-03T08:43:27.974Z,90.70
2019-03-03T08:46:16.985Z,95.65
2019-03-03T08:48:59.223Z,93.70
2019-03-03T08:51:42.804Z,90.03
2019-03-03T08:54:14.523Z,89.45
2019-03-03T08:56:49.135Z,92.60
2019-03-03T08:59:20.815Z,89.37
2019-03-03T09:01:58.837Z,89.80
2019-03-03T09:04:47.613Z,93.87
2019-03-03T09:07:22.001Z,93.07
2019-03-03T09:10:02.155Z,90.40
2019-03-03T09:12:36.920Z,93.27
2019-03-03T09:15:28.200Z,91.20
2019-03-03T09:18:00.162Z,97.42
2019-03-03T09:20:32.031Z,96.35
2019-03-03T09:23:06.106Z,91.55
2019-03-03T09:25:49.983Z,95.90
2019-03-03T09:28:37.809Z,94.47
2019-03-03T09:31:25.486Z,84.35
2019-03-03T09:33:57.369Z,87.53
2019-03-03T09:36:35.895Z,82.12
2019-03-03T09:39:17.649Z,85.85
2019-03-03T09:41:49.303Z,90.07
2019-03-03T09:44:37.183Z,83.33
2019-03-03T09:47:11.904Z,81.72
2019-03-03T09:49:58.401Z,87.22
2019-03-03T09:52:53.523Z,78.57
2019-03-03T09:55:28.554Z,80.15
2019-03-03T09:58:09.725Z,75.72
2019-03-03T10:00:44.630Z,77.90
2019-03-03T10:03:22.488Z,79.07
2019-03-03T10:05:54.144Z,74.60
2019-03-03T10:08:31.893Z,75.90
2019-03-03T10:11:06.223Z,75.28
2019-03-03T10:13:38.167Z,71.20
2019-03-03T10:16:19.073Z,76.25
2019-03-03T10:18:53.274Z,73.75
2019-03-03T10:21:37.107Z,75.35
2019-03-03T10:24:08.853Z,70.67
2019-03-03T10:26:52.683Z,77.53
2019-03-03T10:29:33.309Z,73.87
2019-03-03T10:32:25.879Z,73.02
2019-03-03T10:35:06.704Z,72.65
2019-03-03T10:37:38.688Z,69.80
2019-03-03T10:40:27.817Z,66.45
2019-03-03T10:42:59.610Z,70.62
2019-03-03T10:45:47.719Z,68.28
2019-03-03T10:48:31.634Z,70.80
2019-03-03T10:51:20.053Z,75.47
2019-03-03T10:53:51.942Z,60.48
2019-03-03T10:56:27.053Z,65.80
2019-03-03T10:58:59.088Z,58.30
2019-03-03T11:01:39.683Z,59.35
2019-03-03T11:04:20.264Z,52.93
2019-03-03T11:07:10.445Z,53.33
2019-03-03T11:09:45.103Z,58.15
2019-03-03T11:12:23.167Z,65.47
2019-03-03T11:14:57.661Z,62.60
2019-03-03T11:20:17.118Z,60.75
2019-03-03T11:22:48.784Z,61.37
2019-03-03T11:25:32.303Z,65.78
2019-03-03T11:28:04.001Z,59.30
2019-03-03T11:30:41.388Z,59.65
2019-03-03T11:33:31.064Z,65.92
2019-03-03T11:36:14.598Z,62.25
2019-03-03T11:38:47.166Z,59.48
2019-03-03T11:41:18.898Z,58.38
2019-03-03T11:43:49.607Z,60.75
2019-03-03T11:46:21.770Z,63.75
2019-03-03T11:48:59.962Z,59.08
2019-03-03T11:51:30.060Z,62.40
2019-03-03T11:54:08.043Z,57.83
2019-03-03T11:56:40.007Z,59.83
2019-03-03T11:59:28.299Z,57.98
2019-03-03T12:02:02.975Z,54.93
2019-03-03T12:04:47.028Z,55.20
2019-03-03T12:07:21.983Z,51.33
2019-03-03T12:10:05.548Z,50.63
2019-03-03T12:12:53.665Z,55.58
2019-03-03T12:15:28.327Z,53.38
2019-03-03T12:18:08.787Z,56.88
2019-03-03T12:20:40.781Z,52.93
2019-03-03T12:23:24.311Z,46.60
2019-03-03T12:26:01.580Z,53.42
2019-03-03T12:28:36.168Z,50.38
2019-03-03T12:31:24.177Z,53.85
2019-03-03T12:33:56.073Z,50.92
2019-03-03T12:36:44.225Z,50.10
2019-03-03T12:39:22.128Z,54.65
2019-03-03T12:41:54.090Z,56.65
2019-03-03T12:44:38.035Z,48.38
2019-03-03T12:47:26.088Z,57.73
2019-03-03T12:50:15.882Z,57.25
2019-03-03T12:52:57.181Z,56.95
2019-03-03T12:55:45.067Z,54.13
2019-03-03T12:58:17.778Z,50.85
2019-03-03T13:00:49.429Z,56.23
2019-03-03T13:03:37.402Z,53.42
2019-03-03T13:06:25.545Z,48.30
2019-03-03T13:09:00.318Z,55.28
2019-03-03T13:11:33.664Z,53.55
2019-03-03T13:14:09.450Z,48.73
2019-03-03T13:16:51.527Z,47.58
2019-03-03T13:19:23.238Z,48.35
2019-03-03T13:22:11.185Z,54.98
2019-03-03T13:24:43.216Z,55.88
2019-03-03T13:27:26.744Z,57.23
2019-03-03T13:29:58.641Z,54.53
2019-03-03T13:32:36.343Z,54.20
2019-03-03T13:35:11.127Z,56.00
2019-03-03T13:37:41.172Z,55.10
2019-03-03T13:40:16.281Z,53.80
2019-03-03T13:42:46.330Z,57.27
2019-03-03T13:45:16.923Z,52.78
2019-03-03T13:47:47.016Z,51.02
2019-03-03T13:50:17.026Z,58.00
2019-03-03T13:52:48.150Z,56.10
2019-03-03T13:55:18.210Z,59.23
2019-03-03T13:57:48.738Z,55.10
2019-03-03T14:00:23.552Z,55.17
2019-03-03T14:02:53.642Z,56.25
2019-03-03T14:05:23.664Z,49.27
2019-03-03T14:07:53.684Z,56.18
2019-03-03T14:10:23.996Z,57.27
2019-03-03T14:12:54.075Z,51.73
2019-03-03T14:15:24.337Z,49.75
2019-03-03T14:17:54.538Z,52.13
2019-03-03T14:20:24.824Z,54.67
2019-03-03T14:22:54.865Z,49.53
2019-03-03T14:25:25.137Z,53.68
2019-03-03T14:27:55.259Z,53.05
2019-03-03T14:30:28.699Z,52.85
2019-03-03T14:32:58.920Z,55.47
2019-03-03T14:35:28.973Z,54.33
2019-03-03T14:37:59.238Z,52.78
2019-03-03T14:40:29.586Z,51.23
2019-03-03T14:42:59.911Z,50.38
2019-03-03T14:45:30.314Z,54.18
2019-03-03T14:48:00.402Z,53.90
2019-03-03T14:50:30.429Z,54.70
2019-03-03T14:53:00.693Z,50.98
2019-03-03T14:55:30.778Z,55.05
2019-03-03T14:58:00.775Z,56.10
2019-03-03T15:00:34.045Z,52.50
2019-03-03T15:03:06.281Z,54.30
2019-03-03T15:05:36.298Z,51.95
2019-03-03T15:08:06.358Z,56.45
2019-03-03T15:10:36.674Z,54.33
2019-03-03T15:13:06.736Z,58.38
2019-03-03T15:15:39.558Z,56.25
2019-03-03T15:18:09.648Z,60.10
2019-03-03T15:20:40.435Z,53.05
2019-03-03T15:23:12.575Z,61.58
2019-03-03T15:25:42.906Z,57.93
2019-03-03T15:28:13.237Z,56.55
2019-03-03T15:30:44.840Z,55.92
2019-03-03T15:33:16.619Z,57.13
2019-03-03T15:35:46.924Z,55.17
2019-03-03T15:38:18.125Z,54.60
2019-03-03T15:40:48.702Z,55.52
2019-03-03T15:43:20.035Z,57.67
2019-03-03T15:45:50.325Z,55.33
2019-03-03T15:48:20.872Z,55.40
2019-03-03T15:50:51.413Z,51.53
2019-03-03T15:53:21.479Z,59.38
2019-03-03T15:55:51.734Z,50.73
2019-03-03T15:58:22.080Z,50.35
2019-03-03T16:00:52.593Z,48.17
2019-03-03T16:03:22.660Z,46.55
2019-03-03T16:05:52.659Z,49.05
2019-03-03T16:08:22.658Z,47.48
2019-03-03T16:10:52.978Z,43.78
2019-03-03T16:13:23.057Z,50.55
2019-03-03T16:15:53.348Z,48.95
2019-03-03T16:18:23.713Z,44.20
2019-03-03T16:20:54.080Z,43.65
2019-03-03T16:23:25.492Z,48.73
2019-03-03T16:25:55.578Z,45.80
2019-03-03T16:28:25.969Z,46.73
2019-03-03T16:30:56.317Z,46.45
2019-03-03T16:33:26.654Z,49.40
2019-03-03T16:35:57.008Z,48.23
2019-03-03T16:38:27.119Z,45.25
2019-03-03T16:40:57.086Z,44.83
2019-03-03T16:43:27.548Z,50.08
2019-03-03T16:45:57.870Z,46.53
2019-03-03T16:48:28.325Z,46.08
2019-03-03T16:50:58.659Z,45.80
2019-03-03T16:53:29.005Z,44.85
2019-03-03T16:55:59.094Z,43.87
2019-03-03T16:58:29.344Z,45.92
2019-03-03T17:00:59.442Z,40.73
2019-03-03T17:03:29.442Z,41.85
2019-03-03T17:05:59.490Z,44.45
2019-03-03T17:08:29.726Z,40.40
2019-03-03T17:11:00.114Z,39.03
2019-03-03T17:13:30.415Z,39.58
2019-03-03T17:16:00.758Z,34.70
2019-03-03T17:18:31.819Z,34.00
2019-03-03T17:21:02.581Z,35.28
2019-03-03T17:23:34.114Z,38.98
2019-03-03T17:26:04.113Z,35.58
2019-03-03T17:28:34.193Z,38.33
2019-03-03T17:31:04.570Z,37.50
2019-03-03T17:33:35.409Z,36.90
2019-03-03T17:36:05.483Z,37.80
2019-03-03T17:38:36.916Z,40.50
2019-03-03T17:41:07.006Z,40.95
2019-03-03T17:43:37.265Z,36.58
2019-03-03T17:46:07.359Z,36.33
2019-03-03T17:48:37.363Z,37.15
2019-03-03T17:51:07.407Z,35.75
2019-03-03T17:53:37.676Z,35.60
2019-03-03T17:56:07.813Z,39.67
2019-03-03T17:58:38.078Z,36.65
2019-03-03T18:01:09.637Z,32.58
2019-03-03T18:03:39.994Z,39.33
2019-03-03T18:06:10.430Z,31.07
2019-03-03T18:08:40.761Z,33.15
2019-03-03T18:11:11.130Z,39.13
2019-03-03T18:13:41.454Z,32.83
2019-03-03T18:16:12.370Z,37.00
2019-03-03T18:18:42.719Z,36.00
2019-03-03T18:21:13.040Z,33.98
2019-03-03T18:23:43.130Z,39.08
2019-03-03T18:26:13.420Z,33.90
2019-03-03T18:28:43.748Z,36.73
2019-03-03T18:31:14.094Z,37.60
2019-03-03T18:33:44.460Z,35.58
2019-03-03T18:36:14.695Z,36.93
2019-03-03T18:38:44.986Z,41.48
2019-03-03T18:41:15.079Z,36.65
2019-03-03T18:43:45.103Z,38.65
2019-03-03T18:46:15.118Z,39.03
2019-03-03T18:48:45.117Z,45.15
2019-03-03T18:51:15.154Z,39.85
2019-03-03T18:53:45.253Z,37.33
2019-03-03T18:56:15.250Z,42.45
2019-03-03T18:58:45.336Z,36.85
2019-03-03T19:01:15.359Z,41.92
2019-03-03T19:03:45.632Z,42.98
2019-03-03T19:06:15.743Z,44.00
2019-03-03T19:08:45.767Z,47.65
2019-03-03T19:11:17.354Z,38.90
2019-03-03T19:13:47.737Z,44.80
2019-03-03T19:16:17.795Z,43.70
2019-03-03T19:18:47.831Z,45.33
2019-03-03T19:21:17.842Z,46.50
2019-03-03T19:23:48.097Z,40.10
2019-03-03T19:26:19.089Z,44.40
2019-03-03T19:28:49.213Z,44.00
2019-03-03T19:31:20.904Z,45.35
2019-03-03T19:33:55.085Z,46.45
2019-03-03T19:36:25.182Z,46.13
2019-03-03T19:38:55.241Z,43.58
2019-03-03T19:41:25.529Z,41.60
2019-03-03T19:43:55.574Z,42.70
2019-03-03T19:46:26.088Z,46.20
2019-03-03T19:48:56.190Z,53.15
2019-03-03T19:51:26.205Z,54.00
2019-03-03T19:53:56.876Z,42.53
2019-03-03T19:56:27.098Z,44.30
2019-03-03T19:58:57.144Z,49.77
2019-03-03T20:01:27.395Z,45.10
2019-03-03T20:03:57.757Z,49.08
2019-03-03T20:06:28.098Z,49.58
2019-03-03T20:08:58.183Z,49.98
2019-03-03T20:11:28.375Z,48.92
2019-03-03T20:13:58.696Z,47.53
2019-03-03T20:16:28.791Z,43.78
2019-03-03T20:18:59.023Z,44.83
2019-03-03T20:21:29.419Z,47.03
2019-03-03T20:23:59.481Z,47.55
2019-03-03T20:26:29.495Z,49.73
2019-03-03T20:28:59.530Z,43.83
2019-03-03T20:31:29.550Z,39.80
2019-03-03T20:33:59.541Z,39.78
2019-03-03T20:36:29.578Z,39.80
2019-03-03T20:38:59.840Z,48.68
2019-03-03T20:41:30.351Z,48.52
2019-03-03T20:44:00.436Z,43.28
2019-03-03T20:46:30.488Z,47.00
2019-03-03T20:49:00.480Z,38.75
2019-03-03T20:51:30.541Z,42.78
2019-03-03T20:54:00.807Z,48.90
2019-03-03T20:56:30.894Z,48.63
2019-03-03T20:59:00.903Z,43.83
2019-03-03T21:01:30.929Z,43.85
2019-03-03T21:04:01.203Z,45.45
2019-03-03T21:06:31.537Z,44.35
2019-03-03T21:09:01.627Z,42.98
2019-03-03T21:11:33.370Z,43.38
2019-03-03T21:14:03.878Z,51.95
2019-03-03T21:16:34.389Z,44.00
2019-03-03T21:19:04.537Z,40.12
2019-03-03T21:21:34.544Z,45.73
2019-03-03T21:24:04.554Z,40.55
2019-03-03T21:26:34.603Z,39.80
2019-03-03T21:29:04.629Z,44.77
2019-03-03T21:31:35.855Z,45.58
2019-03-03T21:34:05.942Z,45.80
2019-03-03T21:36:35.948Z,43.40
2019-03-03T21:39:07.558Z,46.63
2019-03-03T21:41:38.255Z,43.92
2019-03-03T21:44:08.606Z,45.80
2019-03-03T21:46:38.720Z,46.58
2019-03-03T21:49:08.721Z,48.92
2019-03-03T21:51:38.976Z,43.70
2019-03-03T21:54:09.331Z,47.83
2019-03-03T21:56:39.695Z,52.65
2019-03-03T21:59:09.751Z,46.70
2019-03-03T22:01:40.031Z,40.03
2019-03-03T22:04:10.118Z,43.28
2019-03-03T22:06:40.439Z,42.23
2019-03-03T22:09:10.469Z,41.98
2019-03-03T22:11:42.115Z,41.48
2019-03-03T22:14:12.155Z,42.43
2019-03-03T22:16:42.172Z,47.25
2019-03-03T22:19:12.179Z,48.28
2019-03-03T22:21:42.223Z,42.48
2019-03-03T22:24:12.536Z,41.80
2019-03-03T22:26:42.739Z,42.33
2019-03-03T22:29:12.748Z,42.33
2019-03-03T22:31:42.770Z,41.75
2019-03-03T22:34:13.065Z,38.78
2019-03-03T22:36:43.099Z,40.23
2019-03-03T22:39:15.596Z,42.78
2019-03-03T22:41:45.632Z,40.25
2019-03-03T22:44:15.630Z,41.48
2019-03-03T22:46:45.909Z,39.67
2019-03-03T22:49:16.280Z,38.00
2019-03-03T22:51:46.595Z,41.42
2019-03-03T22:54:16.944Z,40.48
2019-03-03T22:56:47.014Z,41.75
2019-03-03T22:59:17.056Z,38.85
2019-03-03T23:01:47.320Z,41.20
2019-03-03T23:04:20.782Z,41.15
2019-03-03T23:07:01.757Z,40.05
2019-03-03T23:09:55.517Z,41.80
2019-03-03T23:12:45.500Z,41.08
2019-03-03T23:15:33.580Z,43.40
2019-03-03T23:18:09.892Z,45.43
2019-03-03T23:20:59.758Z,44.33
2019-03-03T23:23:45.072Z,40.92
2019-03-03T23:26:16.909Z,49.25
2019-03-03T23:28:47.424Z,49.77
2019-03-03T23:31:17.703Z,45.25
2019-03-03T23:33:49.051Z,47.65
2019-03-03T23:36:19.030Z,46.68
2019-03-03T23:38:49.282Z,48.80
2019-03-03T23:41:19.393Z,46.98
2019-03-03T23:43:49.414Z,54.38
2019-03-03T23:46:19.667Z,50.12
2019-03-03T23:48:50.017Z,47.48
2019-03-03T23:51:20.085Z,48.00
2019-03-03T23:53:50.402Z,52.23
2019-03-03T23:56:20.750Z,50.33
2019-03-03T23:58:50.813Z,45.70
